sensor_id;sensor_type;location;lat;lon;timestamp;pressure;altitude;pressure_sealevel;temperature;humidity
44140;BME280;29803;51.048;4.686;2023-09-19T00:01:03;100903.41;;;16.03;100.00
44140;BME280;29803;51.048;4.686;2023-09-19T00:03:36;100912.34;;;15.97;100.00
44140;BME280;29803;51.048;4.686;2023-09-19T00:06:07;100916.31;;;16.01;100.00
44140;BME280;29803;51.048;4.686;2023-09-19T00:08:38;100911.69;;;15.95;100.00
44140;BME280;29803;51.048;4.686;2023-09-19T00:11:09;100911.06;;;15.93;100.00
44140;BME280;29803;51.048;4.686;2023-09-19T00:13:41;100927.69;;;15.90;100.00
44140;BME280;29803;51.048;4.686;2023-09-19T00:16:11;100923.28;;;15.83;100.00
44140;BME280;29803;51.048;4.686;2023-09-19T00:18:42;100924.34;;;15.88;100.00
44140;BME280;29803;51.048;4.686;2023-09-19T00:21:13;100925.19;;;15.89;100.00
44140;BME280;29803;51.048;4.686;2023-09-19T00:23:43;100936.84;;;15.89;100.00
44140;BME280;29803;51.048;4.686;2023-09-19T00:26:14;100934.28;;;15.81;100.00
44140;BME280;29803;51.048;4.686;2023-09-19T00:28:44;100936.81;;;15.83;100.00
44140;BME280;29803;51.048;4.686;2023-09-19T00:31:15;100941.78;;;15.79;100.00
44140;BME280;29803;51.048;4.686;2023-09-19T00:33:45;100943.66;;;15.78;100.00
44140;BME280;29803;51.048;4.686;2023-09-19T00:36:16;100948.59;;;15.75;100.00
44140;BME280;29803;51.048;4.686;2023-09-19T00:38:46;100955.09;;;15.80;100.00
44140;BME280;29803;51.048;4.686;2023-09-19T00:41:17;100948.03;;;15.86;100.00
44140;BME280;29803;51.048;4.686;2023-09-19T00:43:47;100949.28;;;15.84;100.00
44140;BME280;29803;51.048;4.686;2023-09-19T00:46:18;100951.50;;;15.73;100.00
44140;BME280;29803;51.048;4.686;2023-09-19T00:48:48;100945.91;;;15.75;100.00
44140;BME280;29803;51.048;4.686;2023-09-19T00:51:20;100957.56;;;15.75;100.00
44140;BME280;29803;51.048;4.686;2023-09-19T00:53:52;100956.72;;;15.75;100.00
44140;BME280;29803;51.048;4.686;2023-09-19T00:56:22;100956.44;;;15.63;100.00
44140;BME280;29803;51.048;4.686;2023-09-19T00:58:53;100965.84;;;15.67;100.00
44140;BME280;29803;51.048;4.686;2023-09-19T01:01:24;100968.91;;;15.64;100.00
44140;BME280;29803;51.048;4.686;2023-09-19T01:03:55;100965.38;;;15.64;100.00
44140;BME280;29803;51.048;4.686;2023-09-19T01:06:35;100966.78;;;15.60;100.00
44140;BME280;29803;51.048;4.686;2023-09-19T01:09:07;100967.81;;;15.59;100.00
44140;BME280;29803;51.048;4.686;2023-09-19T01:11:43;100968.63;;;15.59;100.00
44140;BME280;29803;51.048;4.686;2023-09-19T01:14:29;100971.09;;;15.54;100.00
44140;BME280;29803;51.048;4.686;2023-09-19T01:17:05;100974.84;;;15.53;100.00
44140;BME280;29803;51.048;4.686;2023-09-19T01:22:46;100971.06;;;15.47;100.00
44140;BME280;29803;51.048;4.686;2023-09-19T01:25:34;100976.59;;;15.39;100.00
44140;BME280;29803;51.048;4.686;2023-09-19T01:30:57;100978.00;;;15.35;100.00
44140;BME280;29803;51.048;4.686;2023-09-19T01:33:56;100983.34;;;15.28;100.00
44140;BME280;29803;51.048;4.686;2023-09-19T01:36:29;100977.69;;;15.23;100.00
44140;BME280;29803;51.048;4.686;2023-09-19T01:39:00;100982.06;;;15.24;100.00
44140;BME280;29803;51.048;4.686;2023-09-19T01:42:01;100985.34;;;15.20;100.00
44140;BME280;29803;51.048;4.686;2023-09-19T01:44:41;100975.94;;;15.16;100.00
44140;BME280;29803;51.048;4.686;2023-09-19T01:47:32;100978.91;;;15.21;100.00
44140;BME280;29803;51.048;4.686;2023-09-19T01:50:16;100991.22;;;15.23;100.00
44140;BME280;29803;51.048;4.686;2023-09-19T01:52:54;100986.19;;;15.20;100.00
44140;BME280;29803;51.048;4.686;2023-09-19T01:55:28;100987.41;;;15.18;100.00
44140;BME280;29803;51.048;4.686;2023-09-19T01:58:01;100989.44;;;15.16;100.00
44140;BME280;29803;51.048;4.686;2023-09-19T02:00:37;100985.75;;;15.17;100.00
44140;BME280;29803;51.048;4.686;2023-09-19T02:03:09;100989.28;;;15.17;100.00
44140;BME280;29803;51.048;4.686;2023-09-19T02:05:40;100988.50;;;15.23;100.00
44140;BME280;29803;51.048;4.686;2023-09-19T02:08:11;100980.78;;;15.20;100.00
44140;BME280;29803;51.048;4.686;2023-09-19T02:10:42;100984.91;;;15.16;100.00
44140;BME280;29803;51.048;4.686;2023-09-19T02:13:12;100990.31;;;15.16;100.00
44140;BME280;29803;51.048;4.686;2023-09-19T02:15:44;100981.75;;;15.13;100.00
44140;BME280;29803;51.048;4.686;2023-09-19T02:18:15;100980.72;;;15.14;100.00
44140;BME280;29803;51.048;4.686;2023-09-19T02:20:47;100978.47;;;15.17;100.00
44140;BME280;29803;51.048;4.686;2023-09-19T02:23:18;100975.09;;;15.15;100.00
44140;BME280;29803;51.048;4.686;2023-09-19T02:25:54;100966.25;;;15.21;100.00
44140;BME280;29803;51.048;4.686;2023-09-19T02:28:27;100972.88;;;15.19;100.00
44140;BME280;29803;51.048;4.686;2023-09-19T02:31:04;100964.19;;;15.23;100.00
44140;BME280;29803;51.048;4.686;2023-09-19T02:33:36;100964.19;;;15.23;100.00
44140;BME280;29803;51.048;4.686;2023-09-19T02:36:07;100959.41;;;15.25;100.00
44140;BME280;29803;51.048;4.686;2023-09-19T02:38:39;100969.78;;;15.22;100.00
44140;BME280;29803;51.048;4.686;2023-09-19T02:41:09;100974.00;;;15.31;100.00
44140;BME280;29803;51.048;4.686;2023-09-19T02:43:40;100983.22;;;15.37;100.00
44140;BME280;29803;51.048;4.686;2023-09-19T02:46:10;100983.03;;;15.38;100.00
44140;BME280;29803;51.048;4.686;2023-09-19T02:48:41;100981.03;;;15.47;100.00
44140;BME280;29803;51.048;4.686;2023-09-19T02:51:12;100985.44;;;15.54;100.00
44140;BME280;29803;51.048;4.686;2023-09-19T02:53:44;100984.31;;;15.64;100.00
44140;BME280;29803;51.048;4.686;2023-09-19T02:56:14;100988.34;;;15.74;100.00
44140;BME280;29803;51.048;4.686;2023-09-19T02:58:46;100990.66;;;15.77;100.00
44140;BME280;29803;51.048;4.686;2023-09-19T03:01:18;100987.13;;;15.77;100.00
44140;BME280;29803;51.048;4.686;2023-09-19T03:03:49;100992.47;;;15.70;100.00
44140;BME280;29803;51.048;4.686;2023-09-19T03:06:20;100989.84;;;15.77;100.00
44140;BME280;29803;51.048;4.686;2023-09-19T03:08:51;100994.41;;;15.76;100.00
44140;BME280;29803;51.048;4.686;2023-09-19T03:11:22;100992.28;;;15.72;100.00
44140;BME280;29803;51.048;4.686;2023-09-19T03:13:53;100996.50;;;15.60;100.00
44140;BME280;29803;51.048;4.686;2023-09-19T03:16:24;100984.09;;;15.65;100.00
44140;BME280;29803;51.048;4.686;2023-09-19T03:18:55;100991.09;;;15.60;100.00
44140;BME280;29803;51.048;4.686;2023-09-19T03:21:26;100987.53;;;15.52;100.00
44140;BME280;29803;51.048;4.686;2023-09-19T03:23:56;100987.91;;;15.49;100.00
44140;BME280;29803;51.048;4.686;2023-09-19T03:26:27;100997.56;;;15.59;100.00
44140;BME280;29803;51.048;4.686;2023-09-19T03:28:57;101003.03;;;15.65;100.00
44140;BME280;29803;51.048;4.686;2023-09-19T03:31:28;101002.41;;;15.63;100.00
44140;BME280;29803;51.048;4.686;2023-09-19T03:33:58;100993.25;;;15.64;100.00
44140;BME280;29803;51.048;4.686;2023-09-19T03:36:29;100984.09;;;15.65;100.00
44140;BME280;29803;51.048;4.686;2023-09-19T03:39:00;100994.53;;;15.68;100.00
44140;BME280;29803;51.048;4.686;2023-09-19T03:41:31;100997.88;;;15.70;100.00
44140;BME280;29803;51.048;4.686;2023-09-19T03:44:03;100995.59;;;15.67;100.00
44140;BME280;29803;51.048;4.686;2023-09-19T03:46:34;100979.97;;;15.69;100.00
44140;BME280;29803;51.048;4.686;2023-09-19T03:49:06;100994.28;;;15.63;100.00
44140;BME280;29803;51.048;4.686;2023-09-19T03:51:36;100989.38;;;15.73;100.00
44140;BME280;29803;51.048;4.686;2023-09-19T03:54:07;101001.28;;;15.79;100.00
44140;BME280;29803;51.048;4.686;2023-09-19T03:56:38;100988.34;;;15.74;100.00
44140;BME280;29803;51.048;4.686;2023-09-19T03:59:09;100987.88;;;15.71;100.00
44140;BME280;29803;51.048;4.686;2023-09-19T04:01:39;100998.72;;;15.71;100.00
44140;BME280;29803;51.048;4.686;2023-09-19T04:04:11;101011.81;;;15.67;100.00
44140;BME280;29803;51.048;4.686;2023-09-19T04:06:44;101026.63;;;15.71;100.00
44140;BME280;29803;51.048;4.686;2023-09-19T04:09:15;101016.63;;;15.72;100.00
44140;BME280;29803;51.048;4.686;2023-09-19T04:11:45;101018.31;;;15.73;100.00
44140;BME280;29803;51.048;4.686;2023-09-19T04:14:16;101016.22;;;15.75;100.00
44140;BME280;29803;51.048;4.686;2023-09-19T04:16:46;101027.44;;;15.72;100.00
44140;BME280;29803;51.048;4.686;2023-09-19T04:19:17;101011.22;;;15.72;100.00
44140;BME280;29803;51.048;4.686;2023-09-19T04:21:47;101014.22;;;15.62;100.00
44140;BME280;29803;51.048;4.686;2023-09-19T04:24:18;101009.00;;;15.61;100.00
44140;BME280;29803;51.048;4.686;2023-09-19T04:26:49;100999.13;;;15.46;100.00
44140;BME280;29803;51.048;4.686;2023-09-19T04:29:19;101000.59;;;15.49;100.00
44140;BME280;29803;51.048;4.686;2023-09-19T04:31:50;101001.75;;;15.40;100.00
44140;BME280;29803;51.048;4.686;2023-09-19T04:34:22;101001.94;;;15.38;100.00
44140;BME280;29803;51.048;4.686;2023-09-19T04:36:54;101008.72;;;15.27;100.00
44140;BME280;29803;51.048;4.686;2023-09-19T04:39:27;101018.28;;;15.30;100.00
44140;BME280;29803;51.048;4.686;2023-09-19T04:41:57;101026.22;;;15.32;100.00
44140;BME280;29803;51.048;4.686;2023-09-19T04:44:29;101028.06;;;15.31;100.00
44140;BME280;29803;51.048;4.686;2023-09-19T04:46:59;101036.53;;;15.21;100.00
44140;BME280;29803;51.048;4.686;2023-09-19T04:49:30;101039.28;;;15.28;100.00
44140;BME280;29803;51.048;4.686;2023-09-19T04:52:00;101045.72;;;15.27;100.00
44140;BME280;29803;51.048;4.686;2023-09-19T04:54:31;101036.88;;;15.18;100.00
44140;BME280;29803;51.048;4.686;2023-09-19T04:57:01;101041.47;;;15.18;100.00
44140;BME280;29803;51.048;4.686;2023-09-19T04:59:32;101039.06;;;15.08;100.00
44140;BME280;29803;51.048;4.686;2023-09-19T05:02:03;101051.94;;;15.06;100.00
44140;BME280;29803;51.048;4.686;2023-09-19T05:04:33;101050.06;;;15.07;100.00
44140;BME280;29803;51.048;4.686;2023-09-19T05:07:04;101058.56;;;15.03;100.00
44140;BME280;29803;51.048;4.686;2023-09-19T05:09:34;101062.03;;;14.97;100.00
44140;BME280;29803;51.048;4.686;2023-09-19T05:12:07;101055.69;;;14.90;100.00
44140;BME280;29803;51.048;4.686;2023-09-19T05:14:41;101058.38;;;14.90;100.00
44140;BME280;29803;51.048;4.686;2023-09-19T05:17:11;101062.94;;;14.90;100.00
44140;BME280;29803;51.048;4.686;2023-09-19T05:19:43;101062.13;;;14.89;100.00
44140;BME280;29803;51.048;4.686;2023-09-19T05:22:14;101065.84;;;14.88;100.00
44140;BME280;29803;51.048;4.686;2023-09-19T05:24:44;101071.72;;;14.92;100.00
44140;BME280;29803;51.048;4.686;2023-09-19T05:27:19;101071.81;;;14.84;100.00
44140;BME280;29803;51.048;4.686;2023-09-19T05:29:51;101070.78;;;14.85;100.00
44140;BME280;29803;51.048;4.686;2023-09-19T05:32:23;101073.13;;;14.88;100.00
44140;BME280;29803;51.048;4.686;2023-09-19T05:34:53;101064.53;;;14.84;100.00
44140;BME280;29803;51.048;4.686;2023-09-19T05:37:26;101061.75;;;14.92;100.00
44140;BME280;29803;51.048;4.686;2023-09-19T05:39:57;101055.50;;;14.92;100.00
44140;BME280;29803;51.048;4.686;2023-09-19T05:42:27;101059.69;;;14.94;100.00
44140;BME280;29803;51.048;4.686;2023-09-19T05:44:58;101055.13;;;14.95;100.00
44140;BME280;29803;51.048;4.686;2023-09-19T05:47:28;101067.69;;;15.02;100.00
44140;BME280;29803;51.048;4.686;2023-09-19T05:49:59;101060.78;;;15.00;100.00
44140;BME280;29803;51.048;4.686;2023-09-19T05:52:29;101064.88;;;14.96;100.00
44140;BME280;29803;51.048;4.686;2023-09-19T05:55:00;101062.50;;;15.01;100.00
44140;BME280;29803;51.048;4.686;2023-09-19T05:57:30;101067.69;;;15.02;100.00
44140;BME280;29803;51.048;4.686;2023-09-19T06:00:01;101072.31;;;15.09;100.00
44140;BME280;29803;51.048;4.686;2023-09-19T06:02:32;101065.72;;;15.11;100.00
44140;BME280;29803;51.048;4.686;2023-09-19T06:05:05;101076.38;;;15.19;100.00
44140;BME280;29803;51.048;4.686;2023-09-19T06:07:37;101074.63;;;15.26;100.00
44140;BME280;29803;51.048;4.686;2023-09-19T06:10:08;101078.00;;;15.35;100.00
44140;BME280;29803;51.048;4.686;2023-09-19T06:12:41;101069.34;;;15.40;100.00
44140;BME280;29803;51.048;4.686;2023-09-19T06:15:15;101082.72;;;15.48;100.00
44140;BME280;29803;51.048;4.686;2023-09-19T06:17:49;101081.44;;;15.44;100.00
44140;BME280;29803;51.048;4.686;2023-09-19T06:20:20;101077.69;;;15.45;100.00
44140;BME280;29803;51.048;4.686;2023-09-19T06:22:53;101066.38;;;15.56;100.00
44140;BME280;29803;51.048;4.686;2023-09-19T06:25:23;101074.69;;;15.54;100.00
44140;BME280;29803;51.048;4.686;2023-09-19T06:27:54;101069.72;;;15.58;100.00
44140;BME280;29803;51.048;4.686;2023-09-19T06:30:25;101074.56;;;15.63;100.00
44140;BME280;29803;51.048;4.686;2023-09-19T06:32:57;101083.22;;;15.73;100.00
44140;BME280;29803;51.048;4.686;2023-09-19T06:35:28;101076.44;;;15.84;100.00
44140;BME280;29803;51.048;4.686;2023-09-19T06:38:03;101082.31;;;15.87;100.00
44140;BME280;29803;51.048;4.686;2023-09-19T06:40:34;101082.59;;;15.99;100.00
44140;BME280;29803;51.048;4.686;2023-09-19T06:43:05;101084.63;;;16.18;100.00
44140;BME280;29803;51.048;4.686;2023-09-19T06:45:36;101087.59;;;16.30;100.00
44140;BME280;29803;51.048;4.686;2023-09-19T06:48:06;101094.91;;;16.29;100.00
44140;BME280;29803;51.048;4.686;2023-09-19T06:50:37;101100.41;;;16.43;100.00
44140;BME280;29803;51.048;4.686;2023-09-19T06:53:08;101094.81;;;16.51;100.00
44140;BME280;29803;51.048;4.686;2023-09-19T06:55:40;101103.16;;;16.49;100.00
44140;BME280;29803;51.048;4.686;2023-09-19T06:58:11;101100.31;;;16.64;100.00
44140;BME280;29803;51.048;4.686;2023-09-19T07:00:41;101095.06;;;16.56;100.00
44140;BME280;29803;51.048;4.686;2023-09-19T07:03:13;101094.06;;;16.64;100.00
44140;BME280;29803;51.048;4.686;2023-09-19T07:05:47;101095.13;;;16.63;100.00
44140;BME280;29803;51.048;4.686;2023-09-19T07:08:18;101095.34;;;16.68;100.00
44140;BME280;29803;51.048;4.686;2023-09-19T07:10:50;101102.91;;;16.72;100.00
44140;BME280;29803;51.048;4.686;2023-09-19T07:13:24;101108.56;;;16.77;100.00
44140;BME280;29803;51.048;4.686;2023-09-19T07:15:58;101102.81;;;16.94;100.00
44140;BME280;29803;51.048;4.686;2023-09-19T07:18:29;101092.84;;;17.07;100.00
44140;BME280;29803;51.048;4.686;2023-09-19T07:21:00;101093.69;;;17.08;100.00
44140;BME280;29803;51.048;4.686;2023-09-19T07:23:34;101088.50;;;17.13;100.00
44140;BME280;29803;51.048;4.686;2023-09-19T07:26:05;101085.56;;;17.21;100.00
44140;BME280;29803;51.048;4.686;2023-09-19T07:28:35;101093.72;;;17.21;100.00
44140;BME280;29803;51.048;4.686;2023-09-19T07:31:06;101093.16;;;17.46;100.00
44140;BME280;29803;51.048;4.686;2023-09-19T07:33:40;101089.88;;;17.77;100.00
44140;BME280;29803;51.048;4.686;2023-09-19T07:36:12;101088.88;;;17.98;100.00
44140;BME280;29803;51.048;4.686;2023-09-19T07:38:43;101089.25;;;18.21;100.00
44140;BME280;29803;51.048;4.686;2023-09-19T07:41:14;101095.75;;;18.07;100.00
44140;BME280;29803;51.048;4.686;2023-09-19T07:43:44;101091.38;;;17.99;100.00
44140;BME280;29803;51.048;4.686;2023-09-19T07:46:15;101094.28;;;18.24;100.00
44140;BME280;29803;51.048;4.686;2023-09-19T07:48:45;101106.75;;;18.52;100.00
44140;BME280;29803;51.048;4.686;2023-09-19T07:51:19;101100.31;;;18.40;100.00
44140;BME280;29803;51.048;4.686;2023-09-19T07:53:49;101103.47;;;18.30;100.00
44140;BME280;29803;51.048;4.686;2023-09-19T07:56:20;101102.63;;;18.36;100.00
44140;BME280;29803;51.048;4.686;2023-09-19T07:58:50;101095.91;;;18.45;100.00
44140;BME280;29803;51.048;4.686;2023-09-19T08:01:22;101093.19;;;18.58;100.00
44140;BME280;29803;51.048;4.686;2023-09-19T08:03:54;101090.91;;;18.35;100.00
44140;BME280;29803;51.048;4.686;2023-09-19T08:06:24;101093.81;;;18.47;100.00
44140;BME280;29803;51.048;4.686;2023-09-19T08:09:00;101093.53;;;18.82;100.00
44140;BME280;29803;51.048;4.686;2023-09-19T08:11:37;101094.59;;;18.81;100.00
44140;BME280;29803;51.048;4.686;2023-09-19T08:14:09;101097.88;;;18.96;100.00
44140;BME280;29803;51.048;4.686;2023-09-19T08:16:44;101096.63;;;18.99;100.00
44140;BME280;29803;51.048;4.686;2023-09-19T08:19:15;101102.91;;;18.99;100.00
44140;BME280;29803;51.048;4.686;2023-09-19T08:21:46;101096.38;;;19.07;100.00
44140;BME280;29803;51.048;4.686;2023-09-19T08:24:17;101095.00;;;19.29;100.00
44140;BME280;29803;51.048;4.686;2023-09-19T08:26:49;101096.84;;;19.35;100.00
44140;BME280;29803;51.048;4.686;2023-09-19T08:29:23;101088.16;;;19.20;100.00
44140;BME280;29803;51.048;4.686;2023-09-19T08:31:57;101094.00;;;19.62;100.00
44140;BME280;29803;51.048;4.686;2023-09-19T08:34:28;101086.50;;;19.82;100.00
44140;BME280;29803;51.048;4.686;2023-09-19T08:37:04;101087.25;;;19.96;100.00
44140;BME280;29803;51.048;4.686;2023-09-19T08:39:34;101095.41;;;19.96;100.00
44140;BME280;29803;51.048;4.686;2023-09-19T08:42:07;101095.31;;;19.84;100.00
44140;BME280;29803;51.048;4.686;2023-09-19T08:44:38;101092.25;;;19.74;100.00
44140;BME280;29803;51.048;4.686;2023-09-19T08:47:12;101102.84;;;19.82;100.00
44140;BME280;29803;51.048;4.686;2023-09-19T08:49:55;101089.22;;;19.12;100.00
44140;BME280;29803;51.048;4.686;2023-09-19T08:52:32;101092.66;;;19.39;100.00
44140;BME280;29803;51.048;4.686;2023-09-19T08:55:07;101101.81;;;19.83;100.00
44140;BME280;29803;51.048;4.686;2023-09-19T08:57:42;101094.81;;;19.94;100.00
44140;BME280;29803;51.048;4.686;2023-09-19T09:00:15;101091.78;;;20.27;100.00
44140;BME280;29803;51.048;4.686;2023-09-19T09:02:48;101091.25;;;20.18;100.00
44140;BME280;29803;51.048;4.686;2023-09-19T09:05:20;101077.00;;;20.16;100.00
44140;BME280;29803;51.048;4.686;2023-09-19T09:07:53;101086.16;;;20.04;100.00
44140;BME280;29803;51.048;4.686;2023-09-19T09:10:26;101091.47;;;19.92;100.00
44140;BME280;29803;51.048;4.686;2023-09-19T09:12:58;101078.00;;;19.97;100.00
44140;BME280;29803;51.048;4.686;2023-09-19T09:15:29;101090.84;;;20.15;100.00
44140;BME280;29803;51.048;4.686;2023-09-19T09:18:03;101083.41;;;20.04;100.00
44140;BME280;29803;51.048;4.686;2023-09-19T09:20:35;101084.03;;;20.06;100.00
44140;BME280;29803;51.048;4.686;2023-09-19T09:23:06;101089.19;;;20.14;100.00
44140;BME280;29803;51.048;4.686;2023-09-19T09:25:53;101076.72;;;20.25;100.00
44140;BME280;29803;51.048;4.686;2023-09-19T09:28:27;101077.63;;;20.37;100.00
44140;BME280;29803;51.048;4.686;2023-09-19T09:31:00;101078.22;;;20.21;100.00
44140;BME280;29803;51.048;4.686;2023-09-19T09:33:38;101077.63;;;20.62;100.00
44140;BME280;29803;51.048;4.686;2023-09-19T09:36:09;101075.13;;;20.60;100.00
44140;BME280;29803;51.048;4.686;2023-09-19T09:38:45;101067.53;;;20.44;100.00
44140;BME280;29803;51.048;4.686;2023-09-19T09:41:16;101068.47;;;20.31;100.00
44140;BME280;29803;51.048;4.686;2023-09-19T09:44:12;101064.69;;;20.14;100.00
44140;BME280;29803;51.048;4.686;2023-09-19T09:46:47;101062.19;;;20.31;100.00
44140;BME280;29803;51.048;4.686;2023-09-19T09:49:24;101063.53;;;20.22;100.00
44140;BME280;29803;51.048;4.686;2023-09-19T09:52:05;101055.69;;;20.13;100.00
44140;BME280;29803;51.048;4.686;2023-09-19T09:54:37;101067.09;;;20.04;100.00
44140;BME280;29803;51.048;4.686;2023-09-19T09:57:09;101067.59;;;20.12;100.00
44140;BME280;29803;51.048;4.686;2023-09-19T09:59:49;101068.84;;;19.91;100.00
44140;BME280;29803;51.048;4.686;2023-09-19T10:02:25;101061.47;;;19.74;100.00
44140;BME280;29803;51.048;4.686;2023-09-19T10:04:59;101061.47;;;19.99;100.00
44140;BME280;29803;51.048;4.686;2023-09-19T10:07:55;101077.41;;;20.20;100.00
44140;BME280;29803;51.048;4.686;2023-09-19T10:10:32;101077.59;;;20.43;100.00
44140;BME280;29803;51.048;4.686;2023-09-19T10:13:14;101071.72;;;20.47;100.00
44140;BME280;29803;51.048;4.686;2023-09-19T10:15:48;101065.44;;;20.64;100.00
44140;BME280;29803;51.048;4.686;2023-09-19T10:18:23;101069.88;;;20.95;100.00
44140;BME280;29803;51.048;4.686;2023-09-19T10:20:56;101067.06;;;21.02;100.00
44140;BME280;29803;51.048;4.686;2023-09-19T10:23:27;101060.69;;;21.38;100.00
44140;BME280;29803;51.048;4.686;2023-09-19T10:26:01;101049.84;;;21.50;100.00
44140;BME280;29803;51.048;4.686;2023-09-19T10:28:32;101052.31;;;21.52;100.00
44140;BME280;29803;51.048;4.686;2023-09-19T10:31:06;101038.09;;;21.50;100.00
44140;BME280;29803;51.048;4.686;2023-09-19T10:33:40;101048.31;;;21.66;100.00
44140;BME280;29803;51.048;4.686;2023-09-19T10:36:12;101049.88;;;21.73;100.00
44140;BME280;29803;51.048;4.686;2023-09-19T10:38:44;101059.75;;;21.33;100.00
44140;BME280;29803;51.048;4.686;2023-09-19T10:41:17;101060.75;;;21.20;100.00
44140;BME280;29803;51.048;4.686;2023-09-19T10:43:48;101043.53;;;20.89;100.00
44140;BME280;29803;51.048;4.686;2023-09-19T10:46:21;101051.72;;;20.89;100.00
44140;BME280;29803;51.048;4.686;2023-09-19T10:48:52;101046.84;;;21.21;100.00
44140;BME280;29803;51.048;4.686;2023-09-19T10:51:25;101030.59;;;21.45;100.00
44140;BME280;29803;51.048;4.686;2023-09-19T10:54:07;101035.50;;;21.66;100.00
44140;BME280;29803;51.048;4.686;2023-09-19T10:56:47;101044.28;;;21.68;100.00
44140;BME280;29803;51.048;4.686;2023-09-19T10:59:20;101034.75;;;21.48;100.00
44140;BME280;29803;51.048;4.686;2023-09-19T11:01:53;101038.81;;;21.27;100.00
44140;BME280;29803;51.048;4.686;2023-09-19T11:04:30;101060.50;;;21.52;100.00
44140;BME280;29803;51.048;4.686;2023-09-19T11:07:03;101036.06;;;21.45;100.00
44140;BME280;29803;51.048;4.686;2023-09-19T11:09:51;101036.00;;;21.75;100.00
44140;BME280;29803;51.048;4.686;2023-09-19T11:12:49;101035.06;;;22.05;100.00
44140;BME280;29803;51.048;4.686;2023-09-19T11:27:09;101017.97;;;21.74;100.00
44140;BME280;29803;51.048;4.686;2023-09-19T11:29:40;101008.91;;;21.62;100.00
44140;BME280;29803;51.048;4.686;2023-09-19T11:32:11;101011.88;;;21.72;100.00
44140;BME280;29803;51.048;4.686;2023-09-19T11:34:43;101009.66;;;21.69;100.00
44140;BME280;29803;51.048;4.686;2023-09-19T11:42:47;101003.31;;;21.68;100.00
44140;BME280;29803;51.048;4.686;2023-09-19T11:48:18;101003.53;;;21.43;100.00
44140;BME280;29803;51.048;4.686;2023-09-19T11:50:49;101006.91;;;21.69;100.00
44140;BME280;29803;51.048;4.686;2023-09-19T11:53:22;101012.13;;;21.70;100.00
44140;BME280;29803;51.048;4.686;2023-09-19T11:55:53;101000.34;;;21.46;100.00
44140;BME280;29803;51.048;4.686;2023-09-19T11:58:23;101006.78;;;21.64;100.00
44140;BME280;29803;51.048;4.686;2023-09-19T12:00:58;101010.53;;;21.39;100.00
44140;BME280;29803;51.048;4.686;2023-09-19T12:03:31;101019.41;;;21.05;100.00
44140;BME280;29803;51.048;4.686;2023-09-19T12:06:10;101013.16;;;21.16;100.00
44140;BME280;29803;51.048;4.686;2023-09-19T12:08:44;101008.94;;;21.02;100.00
44140;BME280;29803;51.048;4.686;2023-09-19T12:11:18;101027.84;;;20.85;100.00
44140;BME280;29803;51.048;4.686;2023-09-19T12:13:51;101017.88;;;20.60;100.00
44140;BME280;29803;51.048;4.686;2023-09-19T12:16:23;101005.38;;;20.71;100.00
44140;BME280;29803;51.048;4.686;2023-09-19T12:18:54;101007.41;;;20.76;100.00
44140;BME280;29803;51.048;4.686;2023-09-19T12:21:29;101019.59;;;20.73;100.00
44140;BME280;29803;51.048;4.686;2023-09-19T12:26:43;100986.00;;;20.61;100.00
44140;BME280;29803;51.048;4.686;2023-09-19T12:29:17;100988.75;;;20.91;100.00
44140;BME280;29803;51.048;4.686;2023-09-19T12:34:22;101000.31;;;20.75;100.00
44140;BME280;29803;51.048;4.686;2023-09-19T12:37:05;100996.28;;;20.77;100.00
44140;BME280;29803;51.048;4.686;2023-09-19T12:39:45;101008.50;;;20.75;100.00
44140;BME280;29803;51.048;4.686;2023-09-19T12:42:25;100994.16;;;20.79;100.00
44140;BME280;29803;51.048;4.686;2023-09-19T12:45:07;100984.91;;;21.10;100.00
44140;BME280;29803;51.048;4.686;2023-09-19T12:47:39;100984.13;;;21.21;100.00
44140;BME280;29803;51.048;4.686;2023-09-19T12:50:15;100992.59;;;21.32;100.00
44140;BME280;29803;51.048;4.686;2023-09-19T12:52:59;100986.81;;;21.10;100.00
44140;BME280;29803;51.048;4.686;2023-09-19T12:55:31;100995.28;;;21.20;100.00
44140;BME280;29803;51.048;4.686;2023-09-19T13:00:38;100999.38;;;21.11;100.00
44140;BME280;29803;51.048;4.686;2023-09-19T13:03:25;100988.19;;;21.01;100.00
44140;BME280;29803;51.048;4.686;2023-09-19T13:05:58;101007.84;;;20.91;100.00
44140;BME280;29803;51.048;4.686;2023-09-19T13:08:35;101011.25;;;20.86;100.00
44140;BME280;29803;51.048;4.686;2023-09-19T13:11:14;101005.97;;;20.73;100.00
44140;BME280;29803;51.048;4.686;2023-09-19T13:13:49;101014.91;;;20.80;100.00
44140;BME280;29803;51.048;4.686;2023-09-19T13:16:24;101002.84;;;20.88;100.00
44140;BME280;29803;51.048;4.686;2023-09-19T13:18:55;100991.47;;;20.91;100.00
44140;BME280;29803;51.048;4.686;2023-09-19T13:21:30;101003.88;;;20.75;100.00
44140;BME280;29803;51.048;4.686;2023-09-19T13:24:25;101002.78;;;20.76;100.00
44140;BME280;29803;51.048;4.686;2023-09-19T13:26:57;101017.94;;;20.72;100.00
44140;BME280;29803;51.048;4.686;2023-09-19T13:29:28;101000.31;;;20.75;100.00
44140;BME280;29803;51.048;4.686;2023-09-19T13:31:59;100998.69;;;20.85;100.00
44140;BME280;29803;51.048;4.686;2023-09-19T13:34:29;100996.47;;;20.64;100.00
44140;BME280;29803;51.048;4.686;2023-09-19T13:37:00;101002.81;;;20.58;100.00
44140;BME280;29803;51.048;4.686;2023-09-19T13:39:31;101001.53;;;20.60;100.00
44140;BME280;29803;51.048;4.686;2023-09-19T13:42:02;101000.75;;;20.53;100.00
44140;BME280;29803;51.048;4.686;2023-09-19T13:44:33;100985.63;;;20.57;100.00